Time;durP1;ratioP1;P1;durP2;ratioP2;P2;SDS_P1;SDS_P2;PMS_P1;PMS_P2;Temp;Humidity;BMP_temperature;BMP_pressure;BME280_temperature;BME280_humidity;BME280_pressure;Samples;Min_cycle;Max_cycle;Signal;HPM_P1;HPM_P2
2022/06/17 00:00:24;;;;;;;;;;;;;;;19.35;45.54;97297.47;6274464;23;20027;-80
2022/06/17 00:08:53;;;;;;;2.40;1.80;;;;;;;19.03;45.88;97314.47;6265353;22;20018;-79
2022/06/17 00:19:50;;;;;;;4.00;2.25;;;;;;;18.90;46.69;97305.63;6255040;22;20028;-80
2022/06/17 00:31:23;;;;;;;2.22;2.03;;;;;;;18.63;47.62;97304.19;6240493;22;20035;-79
2022/06/17 00:48:07;;;;;;;2.78;2.30;;;;;;;18.49;48.07;97320.16;6261977;22;20024;-81
2022/06/17 01:05:19;;;;;;;3.13;2.00;;;;;;;18.38;49.29;97331.41;6272782;22;20020;-79
2022/06/17 01:08:12;;;;;;;3.17;2.45;;;;;;;18.37;48.51;97321.88;6260081;22;20031;-80
2022/06/17 02:10:51;;;;;;;6.25;3.03;;;;;;;17.19;51.79;97282.63;6270472;22;19996;-80
2022/06/17 02:13:56;;;;;;;2.60;2.40;;;;;;;17.12;51.90;97277.38;6275010;22;20043;-79
2022/06/17 02:17:02;;;;;;;4.65;3.50;;;;;;;17.09;51.79;97286.47;6274778;22;20000;-79
2022/06/17 02:20:04;;;;;;;3.55;3.25;;;;;;;17.07;51.96;97277.94;6274163;22;20050;-81
2022/06/17 02:22:54;;;;;;;3.25;2.95;;;;;;;17.01;51.64;97277.97;6274799;22;20000;-79
2022/06/17 02:25:57;;;;;;;3.50;2.80;;;;;;;16.92;52.26;97295.03;6222452;22;20031;-81
2022/06/17 02:28:42;;;;;;;5.07;2.70;;;;;;;16.86;52.44;97289.56;6274412;22;20023;-80
2022/06/17 02:31:16;;;;;;;2.97;2.67;;;;;;;16.84;52.38;97299.50;6269930;22;20004;-80
2022/06/17 02:50:40;;;;;;;4.78;2.95;;;;;;;16.73;52.80;97321.16;6264327;22;20020;-80
2022/06/17 02:53:42;;;;;;;5.73;3.40;;;;;;;16.66;52.93;97321.16;6249052;22;20020;-81
2022/06/17 03:01:44;;;;;;;3.00;2.75;;;;;;;16.56;53.40;97309.41;6264086;22;20003;-80
2022/06/17 03:04:23;;;;;;;3.42;3.13;;;;;;;16.52;53.18;97314.25;6274404;22;20007;-79
2022/06/17 03:09:57;;;;;;;4.88;3.20;;;;;;;16.54;53.36;97321.97;6274343;22;20020;-79
2022/06/17 03:12:52;;;;;;;4.03;2.72;;;;;;;16.61;54.05;97313.03;6266768;22;20007;-80
2022/06/17 03:18:13;;;;;;;3.10;2.50;;;;;;;16.69;52.99;97325.22;6252261;22;20011;-80
2022/06/17 03:20:59;;;;;;;3.17;2.88;;;;;;;16.67;53.02;97332.50;6274700;22;20043;-80
2022/06/17 03:35:34;;;;;;;3.25;2.30;;;;;;;16.59;53.38;97340.59;6275397;22;20028;-79
2022/06/17 03:41:16;;;;;;;4.05;2.92;;;;;;;16.44;53.65;97336.34;6275941;22;20052;-80
2022/06/17 03:44:03;;;;;;;8.95;3.00;;;;;;;16.41;53.73;97336.72;6275853;22;20032;-79
2022/06/17 03:46:43;;;;;;;3.88;3.08;;;;;;;16.38;53.53;97339.78;6243325;22;20020;-76
2022/06/17 03:49:15;;;;;;;4.00;2.83;;;;;;;16.37;53.87;97348.66;6260970;23;20038;-79
2022/06/17 03:51:44;;;;;;;;;;;;;;;16.39;53.60;97340.56;6259977;23;20035;-77
2022/06/17 03:54:14;;;;;;;3.50;3.20;;;;;;;16.32;54.09;97348.47;6259693;23;19946;-77
2022/06/17 03:56:46;;;;;;;4.18;2.80;;;;;;;16.26;54.46;97355.31;6259121;23;20467;-79
2022/06/17 03:59:19;;;;;;;4.30;3.17;;;;;;;16.22;54.47;97356.75;6259554;23;20040;-78
2022/06/17 04:01:47;;;;;;;;;;;;;;;16.24;54.20;97354.72;6259817;23;20024;-78
2022/06/17 04:04:17;;;;;;;3.85;3.55;;;;;;;16.23;54.29;97363.63;6259557;23;19962;-77
2022/06/17 04:06:49;;;;;;;3.10;2.88;;;;;;;16.22;54.49;97358.56;6259802;23;20020;-76
2022/06/17 04:09:19;;;;;;;3.97;3.35;;;;;;;16.21;54.35;97359.59;6259230;23;20039;-77
2022/06/17 04:11:50;;;;;;;3.00;2.70;;;;;;;16.20;54.38;97357.94;6258577;23;20103;-77
2022/06/17 04:14:22;;;;;;;2.40;2.20;;;;;;;16.24;54.91;97364.44;6258457;23;20063;-77
2022/06/17 04:16:56;;;;;;;4.55;3.00;;;;;;;16.33;54.87;97371.13;6257079;23;20024;-77
2022/06/17 04:19:26;;;;;;;5.95;3.42;;;;;;;16.43;55.86;97374.22;6256859;23;20064;-78
2022/06/17 04:22:00;;;;;;;3.45;2.63;;;;;;;16.50;54.51;97370.78;6257505;23;20031;-80
2022/06/17 04:24:30;;;;;;;3.72;2.95;;;;;;;16.46;54.56;97373.81;6258060;23;20024;-83
2022/06/17 04:27:02;;;;;;;3.38;3.08;;;;;;;16.44;54.63;97375.84;6257208;23;20031;-79
2022/06/17 04:29:35;;;;;;;5.68;3.00;;;;;;;16.43;54.50;97368.94;6258055;23;20020;-76
2022/06/17 04:32:09;;;;;;;3.75;2.90;;;;;;;16.40;54.58;97379.06;6259760;23;20024;-78
2022/06/17 04:34:37;;;;;;;3.65;3.15;;;;;;;16.38;54.36;97386.38;6257749;23;20016;-77
2022/06/17 04:37:14;;;;;;;5.15;3.13;;;;;;;16.38;54.63;97386.38;6257671;23;20059;-78
2022/06/17 04:39:46;;;;;;;5.22;2.90;;;;;;;16.38;55.04;97392.44;6258235;23;20058;-78
2022/06/17 04:42:17;;;;;;;4.60;3.15;;;;;;;16.36;54.89;97389.19;6263453;23;20027;-79
2022/06/17 04:44:45;;;;;;;5.30;3.30;;;;;;;16.35;55.05;97395.44;6266234;23;20024;-79
2022/06/17 04:47:15;;;;;;;4.50;2.83;;;;;;;16.37;55.46;97403.97;6265894;23;20020;-79
2022/06/17 04:49:46;;;;;;;3.97;3.15;;;;;;;16.40;55.40;97393.06;6264633;23;20115;-79
2022/06/17 04:52:25;;;;;;;4.68;3.80;;;;;;;16.44;55.45;97394.28;6264345;23;20024;-79
2022/06/17 04:54:55;;;;;;;3.95;2.88;;;;;;;16.50;55.36;97399.75;6258446;23;20051;-78
2022/06/17 04:57:23;;;;;;;3.60;3.30;;;;;;;16.55;54.92;97402.59;6259894;23;20074;-77
2022/06/17 04:59:58;;;;;;;5.15;3.10;;;;;;;16.61;54.99;97401.78;6260558;23;20099;-77
2022/06/17 05:02:28;;;;;;;4.80;3.88;;;;;;;16.67;54.79;97406.25;6259642;23;20353;-78
2022/06/17 05:04:59;;;;;;;4.10;3.17;;;;;;;16.72;54.86;97403.81;6260342;23;20035;-78
2022/06/17 05:07:32;;;;;;;5.75;4.00;;;;;;;16.75;54.98;97413.97;6266193;23;20020;-81
2022/06/17 05:10:23;;;;;;;;;;;;;;;16.81;54.55;97415.81;6261485;23;20051;-79
2022/06/17 05:12:56;;;;;;;5.15;3.15;;;;;;;16.85;54.47;97419.69;6260033;23;19915;-78
2022/06/17 05:15:25;;;;;;;7.47;3.80;;;;;;;16.88;54.25;97411.38;6264757;23;20043;-78
2022/06/17 05:17:54;;;;;;;3.35;3.05;;;;;;;16.93;54.37;97404.69;6261341;23;20443;-77
2022/06/17 05:20:23;;;;;;;5.60;3.38;;;;;;;16.97;54.58;97411.19;6261256;23;20094;-78
2022/06/17 05:22:56;;;;;;;4.10;3.70;;;;;;;17.01;54.54;97413.22;6257417;23;20051;-78
2022/06/17 05:25:27;;;;;;;4.53;3.40;;;;;;;17.08;54.23;97419.31;6257221;23;20031;-78
2022/06/17 05:27:55;;;;;;;4.93;3.10;;;;;;;17.15;54.40;97421.94;6256897;23;20031;-77
2022/06/17 05:30:23;;;;;;;3.80;3.42;;;;;;;17.22;54.11;97433.28;6256279;23;20017;-77
2022/06/17 05:32:53;;;;;;;4.20;3.80;;;;;;;17.27;54.12;97430.03;6256491;23;20095;-76
2022/06/17 05:35:22;;;;;;;6.75;3.70;;;;;;;17.32;53.87;97430.25;6257795;23;20526;-77
2022/06/17 05:37:50;;;;;;;4.28;3.78;;;;;;;17.37;53.91;97434.91;6257742;23;20432;-78
2022/06/17 05:40:19;;;;;;;5.10;3.28;;;;;;;17.40;53.67;97434.47;6256108;23;20491;-78
2022/06/17 05:42:49;;;;;;;6.82;4.03;;;;;;;17.46;53.54;97431.03;6256623;23;20016;-77
2022/06/17 05:45:20;;;;;;;6.35;2.80;;;;;;;17.53;54.53;97439.75;6256799;23;20063;-77
2022/06/17 05:47:48;;;;;;;6.63;3.63;;;;;;;17.61;53.89;97431.63;6255823;23;20024;-78
2022/06/17 05:50:17;;;;;;;6.07;3.53;;;;;;;17.67;53.54;97433.44;6254989;23;20020;-77
2022/06/17 05:52:50;;;;;;;7.68;3.42;;;;;;;17.70;52.67;97440.13;6256062;23;20020;-79
2022/06/17 05:55:20;;;;;;;7.22;3.13;;;;;;;17.73;52.54;97452.09;6257128;23;20020;-77
2022/06/17 05:57:47;;;;;;;4.95;3.28;;;;;;;17.76;52.23;97443.78;6256964;23;20103;-77
2022/06/17 06:00:17;;;;;;;8.25;3.85;;;;;;;17.80;52.22;97447.59;6255702;23;20020;-77
2022/06/17 06:02:45;;;;;;;5.35;3.45;;;;;;;17.83;52.06;97452.50;6256552;23;20040;-78
2022/06/17 06:05:15;;;;;;;4.47;3.70;;;;;;;17.85;52.05;97450.47;6257029;23;20534;-77
2022/06/17 06:07:43;;;;;;;5.05;3.58;;;;;;;17.88;52.23;97444.78;6255266;23;20499;-80
2022/06/17 06:10:11;;;;;;;5.38;3.40;;;;;;;17.92;52.48;97453.91;6254365;23;20016;-76
2022/06/17 06:12:57;;;;;;;5.95;3.97;;;;;;;17.95;52.38;97456.16;6255936;23;20464;-77
2022/06/17 06:15:27;;;;;;;6.55;3.88;;;;;;;18.01;52.07;97459.78;6254607;23;20044;-77
2022/06/17 06:17:55;;;;;;;7.60;3.97;;;;;;;18.06;51.87;97454.66;6254628;23;20074;-77
2022/06/17 06:20:23;;;;;;;6.53;3.45;;;;;;;18.10;51.60;97451.44;6253753;23;20395;-78
2022/06/17 06:22:50;;;;;;;5.50;3.97;;;;;;;18.17;51.63;97455.84;6254728;23;20035;-78
2022/06/17 06:25:19;;;;;;;5.22;3.95;;;;;;;18.24;51.19;97460.09;6254373;23;20024;-76
2022/06/17 06:27:48;;;;;;;5.22;4.18;;;;;;;18.28;51.01;97460.50;6254409;23;20394;-77
2022/06/17 06:30:23;;;;;;;4.78;3.90;;;;;;;18.30;50.99;97458.44;6256648;23;20027;-79
2022/06/17 06:32:52;;;;;;;5.22;3.75;;;;;;;18.37;51.49;97461.88;6261254;23;20024;-79
2022/06/17 06:35:22;;;;;;;4.03;3.70;;;;;;;18.44;51.19;97467.13;6261018;23;20070;-79
2022/06/17 06:37:50;;;;;;;2.80;2.60;;;;;;;18.52;51.63;97470.34;6262391;23;20012;-77
2022/06/17 06:40:19;;;;;;;5.72;3.70;;;;;;;18.59;50.93;97466.84;6260771;23;20054;-77
2022/06/17 06:42:49;;;;;;;6.80;3.97;;;;;;;18.65;51.27;97466.00;6262286;23;20024;-78
2022/06/17 06:45:21;;;;;;;3.67;3.38;;;;;;;18.71;51.39;97475.72;6259821;23;20031;-78
2022/06/17 06:47:49;;;;;;;5.37;3.70;;;;;;;18.79;51.15;97472.88;6261443;23;20040;-79
2022/06/17 06:50:20;;;;;;;5.28;4.00;;;;;;;18.86;51.25;97470.97;6259560;23;20059;-80
2022/06/17 06:52:48;;;;;;;5.82;3.50;;;;;;;18.91;50.68;97471.16;6259898;23;20020;-80
2022/06/17 06:55:16;;;;;;;3.95;3.20;;;;;;;18.98;50.68;97470.28;6261633;23;20020;-78
2022/06/17 06:57:53;;;;;;;6.05;3.13;;;;;;;19.06;50.43;97472.69;6260435;23;20553;-78
2022/06/17 07:00:23;;;;;;;5.28;3.90;;;;;;;19.13;50.56;97471.63;6260036;23;20020;-79
2022/06/17 07:02:52;;;;;;;5.68;4.10;;;;;;;19.19;50.04;97469.94;6259608;23;20071;-78
2022/06/17 07:05:20;;;;;;;4.15;3.40;;;;;;;19.24;49.81;97459.53;6260219;23;20031;-77
2022/06/17 07:07:48;;;;;;;6.13;3.45;;;;;;;19.28;49.42;97467.84;6258039;23;20020;-79
2022/06/17 07:10:18;;;;;;;6.75;3.47;;;;;;;19.34;49.81;97469.63;6257924;23;20333;-78
2022/06/17 07:12:45;;;;;;;5.38;3.20;;;;;;;19.40;50.11;97460.81;6258271;23;20401;-80
2022/06/17 07:15:15;;;;;;;5.40;4.03;;;;;;;19.49;49.49;97464.00;6258026;23;20035;-77
2022/06/17 07:17:54;;;;;;;4.78;4.03;;;;;;;19.54;49.25;97470.25;6257262;23;20090;-76
2022/06/17 07:20:22;;;;;;;4.63;3.20;;;;;;;19.61;49.61;97467.53;6256533;23;20448;-78
2022/06/17 07:22:51;;;;;;;4.78;3.65;;;;;;;19.68;49.39;97476.25;6256918;23;20050;-78
2022/06/17 07:25:19;;;;;;;3.30;3.00;;;;;;;19.78;49.05;97480.25;6255988;23;20024;-77
2022/06/17 07:27:49;;;;;;;4.03;3.63;;;;;;;19.82;48.27;97482.25;6224513;23;20027;-82
2022/06/17 07:30:21;;;;;;;4.32;3.63;;;;;;;19.89;48.66;97479.53;6219059;23;20016;-81
2022/06/17 07:32:48;;;;;;;5.03;3.47;;;;;;;19.95;48.26;97481.31;6219690;23;20099;-82
2022/06/17 07:35:17;;;;;;;5.03;3.53;;;;;;;20.02;48.28;97486.53;6220661;23;20028;-79
2022/06/17 07:40:47;;;;;;;10.73;4.13;;;;;;;20.19;48.07;97486.75;6152560;23;20056;-78
2022/06/17 07:43:16;;;;;;;4.85;3.38;;;;;;;20.27;48.55;97487.28;6221790;23;20017;-77
2022/06/17 07:45:45;;;;;;;3.97;3.03;;;;;;;20.34;48.41;97485.34;6221614;23;20056;-77
2022/06/17 07:48:15;;;;;;;3.88;3.40;;;;;;;20.44;48.22;97484.81;6219994;23;20025;-81
2022/06/17 07:50:43;;;;;;;3.80;3.50;;;;;;;20.52;48.23;97486.34;6220143;23;20112;-79
2022/06/17 07:53:11;;;;;;;4.03;2.95;;;;;;;20.61;48.25;97486.88;6220507;23;20051;-82
2022/06/17 07:55:39;;;;;;;4.25;3.00;;;;;;;20.71;47.60;97480.00;6221718;23;20096;-78
2022/06/17 07:58:07;;;;;;;3.90;3.42;;;;;;;20.80;47.69;97485.81;6223356;23;20020;-85
2022/06/17 08:00:38;;;;;;;5.18;3.67;;;;;;;20.89;47.47;97481.81;6223531;23;20040;-82
2022/06/17 08:03:13;;;;;;;3.78;3.30;;;;;;;21.00;47.89;97488.19;6224267;23;20036;-80
2022/06/17 08:05:45;;;;;;;4.30;3.53;;;;;;;21.09;47.33;97481.50;6224846;23;20378;-82
2022/06/17 08:08:21;;;;;;;4.57;3.28;;;;;;;21.18;46.67;97477.47;6224373;23;20025;-82
2022/06/17 08:10:50;;;;;;;4.78;3.08;;;;;;;21.26;46.36;97472.91;6224098;23;20044;-84
2022/06/17 08:13:18;;;;;;;4.20;2.97;;;;;;;21.35;46.06;97480.28;6224940;23;20016;-83
2022/06/17 08:15:46;;;;;;;3.53;3.08;;;;;;;21.46;46.35;97485.88;6227674;23;20364;-82
2022/06/17 08:18:15;;;;;;;5.43;3.20;;;;;;;21.56;46.03;97486.13;6226968;23;20083;-81
2022/06/17 08:20:43;;;;;;;3.85;3.33;;;;;;;21.65;45.07;97484.72;6227801;23;20023;-82
2022/06/17 08:23:11;;;;;;;5.60;2.95;;;;;;;21.73;45.20;97483.56;6228537;23;20029;-81
2022/06/17 08:25:39;;;;;;;3.60;2.55;;;;;;;21.81;44.21;97497.28;6227902;23;20099;-80
2022/06/17 08:28:08;;;;;;;3.38;3.03;;;;;;;21.91;43.96;97493.25;6228059;23;20096;-79
2022/06/17 08:30:39;;;;;;;5.30;2.92;;;;;;;21.99;42.79;97484.94;6229611;23;20020;-78
2022/06/17 08:33:07;;;;;;;3.47;2.10;;;;;;;22.07;42.41;97489.88;6229166;23;20031;-81
2022/06/17 08:36:01;;;;;;;2.60;1.90;;;;;;;22.18;42.15;97493.56;6221671;23;20029;-78
2022/06/17 08:38:31;;;;;;;4.18;2.40;;;;;;;22.27;42.21;97489.53;6222778;23;20096;-77
2022/06/17 08:41:05;;;;;;;3.22;2.17;;;;;;;22.36;40.98;97496.09;6221890;23;20483;-79
2022/06/17 08:43:57;;;;;;;4.32;1.90;;;;;;;22.44;39.88;97496.78;6223179;23;20025;-78
2022/06/17 08:46:45;;;;;;;4.28;1.90;;;;;;;22.52;41.09;97486.59;6221857;23;20099;-77
2022/06/17 08:49:30;;;;;;;4.22;2.25;;;;;;;22.62;40.31;97493.94;6235010;23;20025;-79
2022/06/17 08:52:16;;;;;;;3.30;1.63;;;;;;;22.73;40.98;97506.38;6238833;23;20021;-79
2022/06/17 08:54:55;;;;;;;3.55;1.65;;;;;;;22.83;39.12;97506.56;6236365;23;20730;-79
2022/06/17 08:57:31;;;;;;;3.63;1.83;;;;;;;22.91;38.92;97505.38;6233031;23;20025;-80
2022/06/17 09:00:11;;;;;;;4.05;2.10;;;;;;;22.98;38.97;97503.38;6237596;23;20020;-77
2022/06/17 09:03:09;;;;;;;1.63;1.30;;;;;;;23.07;37.21;97505.66;6235571;23;20185;-80
2022/06/17 09:05:46;;;;;;;3.58;1.60;;;;;;;23.15;37.18;97486.66;6227913;23;20024;-78
2022/06/17 09:08:39;;;;;;;1.90;1.67;;;;;;;23.26;38.10;97490.28;6231982;23;20526;-77
2022/06/17 09:11:17;;;;;;;2.42;1.90;;;;;;;23.35;37.93;97492.34;6231068;23;20287;-80
2022/06/17 09:13:56;;;;;;;2.90;1.55;;;;;;;23.43;37.30;97488.44;6231469;23;20063;-78
2022/06/17 09:16:31;;;;;;;1.92;1.60;;;;;;;23.48;37.39;97485.06;6231159;23;20356;-78
2022/06/17 09:19:02;;;;;;;4.43;1.58;;;;;;;23.53;36.58;97483.28;6230533;23;20025;-77
2022/06/17 09:21:35;;;;;;;3.80;2.05;;;;;;;23.58;36.69;97486.00;6232797;23;20020;-79
2022/06/17 09:24:08;;;;;;;4.38;1.80;;;;;;;23.67;36.58;97488.28;6232478;23;20024;-79
2022/06/17 09:26:42;;;;;;;4.75;1.75;;;;;;;23.72;36.59;97494.47;6231523;23;20031;-79
2022/06/17 09:29:18;;;;;;;5.25;1.92;;;;;;;23.76;36.48;97497.50;6229327;23;20048;-78
2022/06/17 09:31:51;;;;;;;3.15;1.63;;;;;;;23.79;36.20;97497.00;6229300;23;20070;-78
2022/06/17 09:34:23;;;;;;;2.22;1.70;;;;;;;23.81;37.00;97493.06;6228453;23;20048;-79
2022/06/17 09:36:57;;;;;;;2.63;1.65;;;;;;;23.85;35.23;97499.50;6228123;23;20021;-77
2022/06/17 09:39:33;;;;;;;5.90;1.42;;;;;;;23.88;35.23;97500.03;6228373;23;20024;-78
2022/06/17 09:42:08;;;;;;;2.10;1.30;;;;;;;23.93;35.66;97495.59;6228495;23;20017;-77
2022/06/17 09:44:41;;;;;;;3.70;1.75;;;;;;;23.99;35.14;97491.16;6227898;23;20071;-78
2022/06/17 09:50:02;;;;;;;1.40;1.30;;;;;;;24.11;36.13;97494.50;6236457;22;20051;-80
2022/06/17 09:52:47;;;;;;;3.17;1.33;;;;;;;24.16;35.81;97497.25;6229127;22;20004;-79
2022/06/17 10:03:57;;;;;;;5.22;1.67;;;;;;;24.46;36.07;97507.47;6221833;22;20015;-83
2022/06/17 10:18:37;;;;;;;1.17;1.00;;;;;;;24.70;33.34;97501.91;6242337;22;20004;-79
2022/06/17 10:24:26;;;;;;;2.83;1.75;;;;;;;24.79;34.21;97489.72;6225430;22;20000;-83
2022/06/17 10:27:42;;;;;;;2.20;1.45;;;;;;;24.85;33.54;97488.72;6244213;22;20056;-82
2022/06/17 10:30:28;;;;;;;2.70;1.27;;;;;;;24.91;33.64;97478.91;6244240;22;20016;-80
2022/06/17 10:33:05;;;;;;;1.83;1.10;;;;;;;24.97;34.03;97475.22;6244041;22;20035;-79
2022/06/17 10:35:38;;;;;;;3.10;1.05;;;;;;;25.05;31.81;97477.41;6233841;22;20028;-78
2022/06/17 10:38:13;;;;;;;1.30;1.08;;;;;;;25.13;32.24;97472.69;6215246;23;20379;-79
2022/06/17 10:40:42;;;;;;;1.50;1.40;;;;;;;25.21;31.94;97469.56;6214192;23;20047;-78
2022/06/17 10:43:15;;;;;;;1.38;1.10;;;;;;;25.25;32.33;97457.31;6214299;23;20111;-79
2022/06/17 10:45:42;;;;;;;1.33;0.90;;;;;;;25.31;32.15;97467.00;6214229;23;20092;-78
2022/06/17 10:48:22;;;;;;;1.63;1.00;;;;;;;25.36;31.07;97461.69;6214919;23;20028;-78
2022/06/17 10:50:49;;;;;;;1.02;0.88;;;;;;;25.41;31.02;97458.28;6214593;23;20105;-78
2022/06/17 10:53:22;;;;;;;1.92;1.15;;;;;;;25.47;31.47;97458.06;6214585;23;20021;-78
2022/06/17 10:55:54;;;;;;;1.15;1.05;;;;;;;25.53;30.55;97456.19;6214690;23;20032;-78
2022/06/17 10:58:25;;;;;;;1.45;1.33;;;;;;;25.59;31.02;97457.06;6214763;23;20429;-78
2022/06/17 11:00:56;;;;;;;3.03;1.13;;;;;;;25.65;30.91;97456.03;6214564;23;20052;-78
2022/06/17 11:03:27;;;;;;;3.37;1.27;;;;;;;25.70;30.76;97461.38;6214653;23;20055;-78
2022/06/17 11:06:03;;;;;;;2.25;0.88;;;;;;;25.75;29.05;97455.28;6214733;23;20020;-79
2022/06/17 11:08:36;;;;;;;0.95;0.85;;;;;;;25.76;29.85;97457.69;6214622;23;20052;-78
2022/06/17 11:13:54;;;;;;;2.42;1.17;;;;;;;25.86;30.00;97459.59;6214693;23;20094;-78
2022/06/17 11:16:25;;;;;;;3.63;1.20;;;;;;;25.90;29.80;97461.53;6214568;23;20100;-78
2022/06/17 11:18:59;;;;;;;0.73;0.63;;;;;;;25.96;29.57;97462.38;6214653;23;20021;-78
2022/06/17 11:21:32;;;;;;;1.42;1.08;;;;;;;26.02;30.28;97468.53;6214389;23;20052;-79
2022/06/17 11:24:02;;;;;;;1.65;1.15;;;;;;;26.08;30.13;97470.16;6214234;23;20032;-78
2022/06/17 11:26:33;;;;;;;2.17;1.02;;;;;;;26.13;30.11;97464.03;6214816;23;20152;-79
2022/06/17 11:29:04;;;;;;;1.02;1.02;;;;;;;26.12;30.04;97467.78;6214107;23;20023;-79
2022/06/17 11:31:41;;;;;;;2.28;1.30;;;;;;;26.09;30.71;97469.13;6213821;23;20063;-79
2022/06/17 11:34:17;;;;;;;2.85;1.58;;;;;;;26.10;31.36;97470.72;6214656;23;20095;-78
2022/06/17 11:36:56;;;;;;;1.70;1.10;;;;;;;26.15;31.57;97462.72;6214259;23;20054;-78
2022/06/17 11:39:34;;;;;;;1.95;1.20;;;;;;;26.21;31.28;97471.56;6214584;23;20100;-79
2022/06/17 11:42:13;;;;;;;2.20;1.40;;;;;;;26.23;31.04;97464.09;6213823;23;20017;-79
2022/06/17 11:44:51;;;;;;;3.65;1.52;;;;;;;26.24;31.24;97453.13;6214257;23;20055;-78
2022/06/17 11:47:22;;;;;;;1.77;1.20;;;;;;;26.30;31.80;97449.41;6214122;23;20096;-78
2022/06/17 11:49:50;;;;;;;2.22;1.05;;;;;;;26.37;31.07;97443.00;6214101;23;20078;-78
2022/06/17 11:52:28;;;;;;;3.92;1.27;;;;;;;26.43;31.26;97455.31;6216197;23;20044;-79
2022/06/17 11:54:56;;;;;;;1.10;1.00;;;;;;;26.45;30.33;97445.16;6216348;23;20456;-79
2022/06/17 11:57:29;;;;;;;2.90;1.20;;;;;;;26.46;29.18;97446.78;6216629;23;20323;-78
2022/06/17 11:59:59;;;;;;;1.25;1.10;;;;;;;26.47;29.27;97443.03;6216358;23;20066;-78
2022/06/17 12:02:27;;;;;;;3.60;1.00;;;;;;;26.50;29.95;97442.50;6216335;23;20100;-78
2022/06/17 12:05:06;;;;;;;1.63;1.27;;;;;;;26.53;29.22;97431.28;6216255;23;20021;-78
2022/06/17 12:07:46;;;;;;;2.15;0.98;;;;;;;26.58;29.55;97434.00;6215915;23;20056;-78
2022/06/17 12:10:27;;;;;;;1.73;1.00;;;;;;;26.63;29.15;97430.53;6215801;23;20027;-78
2022/06/17 12:13:01;;;;;;;1.65;1.10;;;;;;;26.66;28.62;97432.69;6216385;23;20063;-78
2022/06/17 12:15:32;;;;;;;1.67;1.00;;;;;;;26.69;28.79;97435.63;6216291;23;20055;-79
2022/06/17 12:18:03;;;;;;;2.15;1.13;;;;;;;26.74;29.05;97432.13;6216355;23;20040;-78
2022/06/17 12:20:45;;;;;;;1.08;0.68;;;;;;;26.76;27.87;97432.69;6215839;23;20100;-78
2022/06/17 12:23:18;;;;;;;1.85;1.10;;;;;;;26.75;27.77;97420.38;6216006;23;20017;-78
2022/06/17 12:25:51;;;;;;;0.90;0.90;;;;;;;26.76;28.03;97418.50;6216076;23;20096;-78
2022/06/17 12:28:32;;;;;;;1.38;1.00;;;;;;;26.79;27.51;97412.63;6215825;23;20353;-78
2022/06/17 12:31:07;;;;;;;1.00;0.90;;;;;;;26.83;27.70;97413.69;6216069;23;20021;-78
2022/06/17 12:33:40;;;;;;;1.08;0.68;;;;;;;26.86;27.87;97408.59;6216136;23;20016;-79
2022/06/17 12:36:17;;;;;;;1.13;1.02;;;;;;;26.88;27.66;97408.34;6215951;23;20060;-78
2022/06/17 12:38:53;;;;;;;1.85;1.08;;;;;;;26.88;27.72;97409.16;6215781;23;20021;-78
2022/06/17 12:41:26;;;;;;;1.55;0.80;;;;;;;26.88;27.67;97401.13;6215398;23;20029;-79
2022/06/17 12:44:17;;;;;;;1.00;0.85;;;;;;;26.91;27.23;97405.91;6215597;23;20530;-79
2022/06/17 12:46:55;;;;;;;1.63;0.52;;;;;;;26.95;26.31;97405.41;6216457;23;20056;-79
2022/06/17 12:55:17;;;;;;;0.82;0.80;;;;;;;27.03;26.65;97402.19;6216062;23;20020;-79
2022/06/17 12:58:00;;;;;;;1.30;0.88;;;;;;;27.05;26.67;97406.22;6215587;23;20353;-79
2022/06/17 13:00:35;;;;;;;;;;;;;;;27.07;27.09;97409.44;6215607;23;20023;-79
2022/06/17 13:03:22;;;;;;;0.63;0.63;;;;;;;27.06;26.93;97407.81;6215466;23;19962;-79
2022/06/17 13:05:52;;;;;;;0.98;0.98;;;;;;;27.07;27.02;97404.06;6215595;23;20092;-79
2022/06/17 13:08:32;;;;;;;1.02;0.57;;;;;;;27.09;26.59;97404.59;6216251;23;20025;-79
2022/06/17 13:11:06;;;;;;;2.58;0.85;;;;;;;27.11;26.93;97405.16;6226375;23;20017;-81
2022/06/17 13:13:48;;;;;;;2.13;0.85;;;;;;;27.15;26.55;97400.03;6228643;23;20020;-80
2022/06/17 13:16:23;;;;;;;0.80;0.65;;;;;;;27.18;25.44;97404.03;6216596;23;20330;-79
2022/06/17 13:18:56;;;;;;;0.65;0.65;;;;;;;27.18;25.89;97393.34;6216046;23;20017;-79
2022/06/17 13:21:33;;;;;;;2.72;0.88;;;;;;;27.18;26.37;97399.50;6227880;23;20480;-79
2022/06/17 13:24:09;;;;;;;0.60;0.60;;;;;;;27.19;25.45;97403.00;6233252;23;20024;-80
2022/06/17 13:26:42;;;;;;;0.73;0.73;;;;;;;27.18;25.98;97390.66;6228216;23;20024;-80
2022/06/17 13:29:18;;;;;;;1.70;1.10;;;;;;;27.17;26.72;97392.53;6215742;23;20465;-79
2022/06/17 13:31:53;;;;;;;0.70;0.70;;;;;;;27.19;26.89;97384.25;6215073;23;20551;-79
2022/06/17 13:34:26;;;;;;;1.10;0.70;;;;;;;27.21;27.07;97384.78;6215725;23;20020;-79
2022/06/17 13:37:02;;;;;;;0.75;0.73;;;;;;;27.24;27.45;97393.09;6215094;23;20047;-79
2022/06/17 13:39:32;;;;;;;0.65;0.63;;;;;;;27.27;26.84;97391.75;6215720;23;20100;-79
2022/06/17 13:42:02;;;;;;;1.25;0.90;;;;;;;27.28;27.30;97382.66;6215122;23;20024;-79
2022/06/17 13:44:41;;;;;;;1.15;0.80;;;;;;;27.30;27.33;97375.16;6215117;23;20100;-78
2022/06/17 13:47:21;;;;;;;1.15;1.05;;;;;;;27.29;27.43;97376.22;6215471;23;20349;-79
2022/06/17 13:49:59;;;;;;;2.67;0.80;;;;;;;27.29;27.62;97384.25;6215362;23;20024;-79
2022/06/17 13:52:34;;;;;;;1.15;1.05;;;;;;;27.32;28.50;97381.81;6214904;23;20027;-79
2022/06/17 13:55:12;;;;;;;0.70;0.70;;;;;;;27.35;27.71;97385.03;6215145;23;20096;-79
2022/06/17 13:57:47;;;;;;;1.13;0.88;;;;;;;27.35;27.47;97380.47;6214987;23;20024;-78
2022/06/17 14:00:34;;;;;;;0.82;0.80;;;;;;;27.35;27.29;97377.81;6215057;23;20321;-79
2022/06/17 14:03:06;;;;;;;3.90;1.17;;;;;;;27.34;27.38;97376.22;6215091;23;20095;-79
2022/06/17 14:05:36;;;;;;;1.80;1.20;;;;;;;27.33;27.62;97371.91;6215306;23;20032;-79
2022/06/17 14:08:07;;;;;;;2.30;1.00;;;;;;;27.33;27.45;97369.22;6215199;23;20104;-79
2022/06/17 14:10:45;;;;;;;1.35;1.13;;;;;;;27.33;26.89;97375.41;6214954;23;20051;-79
2022/06/17 14:13:23;;;;;;;1.35;0.80;;;;;;;27.31;27.08;97377.56;6215011;23;20020;-79
2022/06/17 14:15:58;;;;;;;0.93;0.77;;;;;;;27.29;27.42;97373.56;6214934;23;20029;-79
2022/06/17 14:18:31;;;;;;;1.45;0.80;;;;;;;27.25;27.23;97367.13;6217543;23;20021;-80
2022/06/17 14:21:10;;;;;;;1.67;1.02;;;;;;;27.21;27.56;97372.22;6214831;23;20052;-79
2022/06/17 14:23:41;;;;;;;1.17;1.10;;;;;;;27.20;28.01;97373.25;6215043;23;20092;-79
2022/06/17 14:26:33;;;;;;;1.20;1.10;;;;;;;27.20;28.30;97373.25;6214640;23;20027;-79
2022/06/17 14:29:11;;;;;;;1.80;1.00;;;;;;;27.22;28.27;97373.00;6214829;23;20096;-79
2022/06/17 14:31:40;;;;;;;1.35;0.90;;;;;;;27.21;28.29;97366.03;6215104;23;20100;-80
2022/06/17 14:34:13;;;;;;;1.00;1.00;;;;;;;27.20;26.48;97359.06;6214613;23;20017;-79
2022/06/17 14:36:54;;;;;;;0.70;0.70;;;;;;;27.18;26.69;97355.84;6214561;23;20056;-79
2022/06/17 14:39:31;;;;;;;0.82;0.80;;;;;;;27.16;27.05;97363.34;6215206;23;20360;-78
2022/06/17 14:42:02;;;;;;;1.08;0.70;;;;;;;27.16;27.89;97364.16;6214713;23;20043;-79
2022/06/17 14:44:36;;;;;;;1.02;0.80;;;;;;;27.17;28.17;97359.59;6214828;23;20047;-79
2022/06/17 14:47:29;;;;;;;1.30;0.98;;;;;;;27.16;27.86;97358.81;6214707;23;20058;-79
2022/06/17 14:50:17;;;;;;;3.05;0.75;;;;;;;27.17;28.71;97351.56;6214639;23;20100;-79
2022/06/17 14:52:47;;;;;;;1.52;1.05;;;;;;;27.19;28.54;97346.75;6214508;23;20460;-79
2022/06/17 14:55:22;;;;;;;2.40;1.00;;;;;;;27.21;28.76;97345.44;6214939;23;20028;-79
2022/06/17 14:58:12;;;;;;;1.38;1.02;;;;;;;27.23;28.60;97340.59;6214758;23;20461;-78
2022/06/17 15:00:50;;;;;;;1.38;0.90;;;;;;;27.22;28.53;97330.16;6214158;23;20100;-79
2022/06/17 15:03:34;;;;;;;1.00;0.90;;;;;;;27.21;27.92;97329.34;6214693;23;20028;-79
2022/06/17 15:06:02;;;;;;;2.47;1.08;;;;;;;27.20;28.41;97324.22;6219340;23;20020;-81
2022/06/17 15:08:36;;;;;;;1.73;1.00;;;;;;;27.20;27.71;97318.88;6216293;23;20095;-79
2022/06/17 15:11:07;;;;;;;1.40;1.10;;;;;;;27.19;28.23;97319.97;6215291;23;20539;-79
2022/06/17 15:16:26;;;;;;;2.78;1.40;;;;;;;27.18;28.32;97323.69;6214468;23;20437;-79
2022/06/17 15:18:55;;;;;;;1.98;1.10;;;;;;;27.18;27.70;97321.84;6214286;23;20075;-79
2022/06/17 15:21:28;;;;;;;5.20;1.05;;;;;;;27.18;28.03;97327.19;6214499;23;20098;-79
2022/06/17 15:24:06;;;;;;;2.22;1.58;;;;;;;27.20;28.21;97326.91;6214573;23;20375;-79